Capitol Logistics 7385

Operating for MZN



KSCK
Stockton Metropolitan Airport
Stockton, California
KAFW
Fort Worth Alliance Airport
Fort Worth, Texas

Activity Log

Date Flight Route Aircraft Duration
No Flights Yet

Route Details

Aircraft Information
Primary: Boeing 767-300BDSF
Backup: Boeing 757-200SF
Route Data
Distance: 1204nm
Duration: 2h 54m
Recm'd Route: MOD BLD J72 TURKI WESAT2
Origin Wx: KSCK 180255Z 30016KT 10SM CLR 22/05 A2995 RMK AO2 SLP140 T02170050 53007
Dest. Wx: KAFW 180253Z 33006KT 10SM BKN150 BKN210 12/05 A3014 RMK AO2 SLP208 T01170050 53019 $
Notes: